createdAt,value
2016-05-03T00:00:54.368Z,1010.51
2016-05-03T00:01:54.355Z,1010.52
2016-05-03T00:02:54.326Z,1010.54
2016-05-03T00:03:54.298Z,1010.51
2016-05-03T00:04:54.285Z,1010.48
2016-05-03T00:05:54.257Z,1010.5
2016-05-03T00:06:54.227Z,1010.46
2016-05-03T00:07:54.215Z,1010.43
2016-05-03T00:08:54.186Z,1010.45
2016-05-03T00:09:54.174Z,1010.43
2016-05-03T00:10:54.145Z,1010.4
2016-05-03T00:11:54.132Z,1010.36
2016-05-03T00:12:54.104Z,1010.33
2016-05-03T00:13:54.075Z,1010.33
2016-05-03T00:14:54.062Z,1010.33
2016-05-03T00:15:54.034Z,1010.31
2016-05-03T00:16:54.020Z,1010.28
2016-05-03T00:17:53.992Z,1010.35
2016-05-03T00:18:53.964Z,1010.32
2016-05-03T00:19:53.951Z,1010.27
2016-05-03T00:20:53.922Z,1010.24
2016-05-03T00:21:53.909Z,1010.24
2016-05-03T00:22:53.881Z,1010.21
2016-05-03T00:23:53.852Z,1010.24
2016-05-03T00:24:53.839Z,1010.19
2016-05-03T00:25:53.824Z,1010.24
2016-05-03T00:26:53.815Z,1010.25
2016-05-03T00:27:53.837Z,1010.24
2016-05-03T00:28:53.756Z,1010.24
2016-05-03T00:29:53.732Z,1010.22
2016-05-03T00:30:53.703Z,1010.21
2016-05-03T00:31:53.691Z,1010.18
2016-05-03T00:32:53.663Z,1010.22
2016-05-03T00:33:53.649Z,1010.21
2016-05-03T00:34:53.620Z,1010.18
2016-05-03T00:35:53.593Z,1010.2
2016-05-03T00:36:53.579Z,1010.21
2016-05-03T00:37:53.554Z,1010.19
2016-05-03T00:38:53.525Z,1010.2
2016-05-03T00:39:53.512Z,1010.21
2016-05-03T00:40:53.484Z,1010.25
2016-05-03T00:41:53.470Z,1010.2
2016-05-03T00:42:53.443Z,1010.21
2016-05-03T00:43:53.429Z,1010.19
2016-05-03T00:44:53.416Z,1010.19
2016-05-03T00:45:53.372Z,1010.2
2016-05-03T00:46:53.359Z,1010.21
2016-05-03T00:47:53.331Z,1010.18
2016-05-03T00:48:53.318Z,1010.15
2016-05-03T00:49:53.289Z,1010.11
2016-05-03T00:50:53.276Z,1010.16
2016-05-03T00:51:53.373Z,1010.11
2016-05-03T00:52:53.219Z,1010.14
2016-05-03T00:53:53.206Z,1010.09
2016-05-03T00:54:53.178Z,1010.08
2016-05-03T00:55:53.164Z,1010.11
2016-05-03T00:56:53.136Z,1010.02
2016-05-03T00:57:53.123Z,1010.02
2016-05-03T00:58:53.094Z,1010.06
2016-05-03T00:59:53.066Z,1010.06
2016-05-03T01:00:53.053Z,1010.03
2016-05-03T01:01:53.024Z,1010.06
2016-05-03T01:02:53.012Z,1010.05
2016-05-03T01:03:52.983Z,1010.01
2016-05-03T01:04:52.954Z,1009.98
2016-05-03T01:05:52.942Z,1010.01
2016-05-03T01:06:52.913Z,1010.01
2016-05-03T01:07:52.900Z,1009.97
2016-05-03T01:08:52.871Z,1010
2016-05-03T01:09:52.859Z,1009.95
2016-05-03T01:10:52.829Z,1009.96
2016-05-03T01:11:52.802Z,1009.99
2016-05-03T01:12:52.788Z,1009.95
2016-05-03T01:13:52.759Z,1009.98
2016-05-03T01:14:52.747Z,1010
2016-05-03T01:15:52.718Z,1009.97
2016-05-03T01:16:52.690Z,1009.99
2016-05-03T01:17:52.676Z,1009.98
2016-05-03T01:18:52.649Z,1010
2016-05-03T01:19:52.635Z,1009.98
2016-05-03T01:20:52.607Z,1010.02
2016-05-03T01:21:52.594Z,1009.98
2016-05-03T01:22:52.565Z,1009.97
2016-05-03T01:23:52.553Z,1009.99
2016-05-03T01:24:52.524Z,1009.97
2016-05-03T01:25:52.495Z,1009.95
2016-05-03T01:26:52.483Z,1009.97
2016-05-03T01:27:52.470Z,1009.92
2016-05-03T01:28:52.441Z,1010
2016-05-03T01:29:52.412Z,1010
2016-05-03T01:30:52.383Z,1009.99
2016-05-03T01:31:52.372Z,1009.97
2016-05-03T01:32:52.342Z,1010
2016-05-03T01:33:52.314Z,1009.96
2016-05-03T01:34:52.301Z,1009.95
2016-05-03T01:35:52.272Z,1009.97
2016-05-03T01:36:52.260Z,1009.95
2016-05-03T01:37:52.231Z,1009.92
2016-05-03T01:38:52.218Z,1009.89
2016-05-03T01:39:52.189Z,1009.92
2016-05-03T01:40:52.161Z,1009.91
2016-05-03T01:41:52.149Z,1009.89
2016-05-03T01:42:52.119Z,1009.86
2016-05-03T01:43:52.107Z,1009.85
2016-05-03T01:44:52.077Z,1009.85
2016-05-03T01:45:52.065Z,1009.85
2016-05-03T01:46:52.037Z,1009.87
2016-05-03T01:47:52.008Z,1009.83
2016-05-03T01:48:51.995Z,1009.85
2016-05-03T01:49:51.966Z,1009.86
2016-05-03T01:50:51.954Z,1009.86
2016-05-03T01:51:51.925Z,1009.87
2016-05-03T01:52:51.897Z,1009.87
2016-05-03T01:53:51.884Z,1009.83
2016-05-03T01:54:51.854Z,1009.85
2016-05-03T01:55:51.843Z,1009.84
2016-05-03T01:56:51.814Z,1009.82
2016-05-03T01:57:51.800Z,1009.84
2016-05-03T01:58:51.772Z,1009.82
2016-05-03T01:59:51.743Z,1009.75
2016-05-03T02:00:51.731Z,1009.76
2016-05-03T02:01:51.702Z,1009.77
2016-05-03T02:02:51.673Z,1009.77
2016-05-03T02:03:51.661Z,1009.83
2016-05-03T02:04:51.632Z,1009.77
2016-05-03T02:05:51.620Z,1009.8
2016-05-03T02:06:51.590Z,1009.81
2016-05-03T02:07:51.578Z,1009.8
2016-05-03T02:08:51.549Z,1009.78
2016-05-03T02:09:51.520Z,1009.8
2016-05-03T02:10:51.508Z,1009.82
2016-05-03T02:11:51.479Z,1009.81
2016-05-03T02:12:51.466Z,1009.82
2016-05-03T02:13:51.438Z,1009.83
2016-05-03T02:14:51.408Z,1009.81
2016-05-03T02:15:51.396Z,1009.79
2016-05-03T02:16:51.383Z,1009.8
2016-05-03T02:17:51.354Z,1009.83
2016-05-03T02:18:51.326Z,1009.82
2016-05-03T02:19:51.297Z,1009.78
2016-05-03T02:20:51.285Z,1009.78
2016-05-03T02:21:51.256Z,1009.85
2016-05-03T02:22:51.243Z,1009.86
2016-05-03T02:23:51.214Z,1009.78
2016-05-03T02:24:51.185Z,1009.81
2016-05-03T02:25:51.173Z,1009.77
2016-05-03T02:26:51.145Z,1009.76
2016-05-03T02:27:51.131Z,1009.8
2016-05-03T02:28:51.103Z,1009.8
2016-05-03T02:29:51.090Z,1009.78
2016-05-03T02:30:51.062Z,1009.82
2016-05-03T02:31:51.033Z,1009.77
2016-05-03T02:32:51.019Z,1009.77
2016-05-03T02:33:50.992Z,1009.78
2016-05-03T02:34:50.962Z,1009.76
2016-05-03T02:35:50.950Z,1009.78
2016-05-03T02:36:50.921Z,1009.8
2016-05-03T02:37:50.909Z,1009.82
2016-05-03T02:38:50.880Z,1009.8
2016-05-03T02:39:50.850Z,1009.82
2016-05-03T02:40:50.838Z,1009.81
2016-05-03T02:41:50.810Z,1009.84
2016-05-03T02:42:50.797Z,1009.83
2016-05-03T02:43:50.769Z,1009.83
2016-05-03T02:44:50.739Z,1009.85
2016-05-03T02:45:50.727Z,1009.79
2016-05-03T02:46:50.714Z,1009.8
2016-05-03T02:47:50.669Z,1009.78
2016-05-03T02:48:50.657Z,1009.77
2016-05-03T02:49:50.643Z,1009.76
2016-05-03T02:50:50.616Z,1009.75
2016-05-03T02:51:50.585Z,1009.76
2016-05-03T02:52:50.555Z,1009.76
2016-05-03T02:53:50.543Z,1009.74
2016-05-03T02:54:50.514Z,1009.73
2016-05-03T02:55:50.502Z,1009.72
2016-05-03T02:56:50.473Z,1009.72
2016-05-03T02:57:50.444Z,1009.71
2016-05-03T02:58:50.432Z,1009.72
2016-05-03T02:59:50.402Z,1009.71
2016-05-03T03:00:50.390Z,1009.69
2016-05-03T03:01:50.361Z,1009.69
2016-05-03T03:02:50.332Z,1009.67
2016-05-03T03:03:50.320Z,1009.68
2016-05-03T03:04:50.291Z,1009.68
2016-05-03T03:05:50.278Z,1009.68
2016-05-03T03:06:50.250Z,1009.65
2016-05-03T03:07:50.221Z,1009.67
2016-05-03T03:08:50.208Z,1009.64
2016-05-03T03:09:50.178Z,1009.61
2016-05-03T03:10:50.151Z,1009.59
2016-05-03T03:11:50.138Z,1009.59
2016-05-03T03:12:50.109Z,1009.61
2016-05-03T03:13:50.096Z,1009.55
2016-05-03T03:14:50.068Z,1009.52
2016-05-03T03:15:50.039Z,1009.54
2016-05-03T03:16:50.027Z,1009.5
2016-05-03T03:17:49.998Z,1009.5
2016-05-03T03:18:49.985Z,1009.48
2016-05-03T03:19:49.956Z,1009.53
2016-05-03T03:20:49.927Z,1009.5
2016-05-03T03:21:49.915Z,1009.52
2016-05-03T03:22:49.886Z,1009.51
2016-05-03T03:23:49.858Z,1009.46
2016-05-03T03:24:49.844Z,1009.44
2016-05-03T03:25:49.816Z,1009.4
2016-05-03T03:26:49.803Z,1009.45
2016-05-03T03:27:49.774Z,1009.36
2016-05-03T03:28:49.746Z,1009.39
2016-05-03T03:29:49.733Z,1009.36
2016-05-03T03:30:49.705Z,1009.35
2016-05-03T03:31:49.693Z,1009.32
2016-05-03T03:32:49.663Z,1009.29
2016-05-03T03:33:49.651Z,1009.28
2016-05-03T03:34:49.621Z,1009.3
2016-05-03T03:35:49.593Z,1009.34
2016-05-03T03:36:49.581Z,1009.33
2016-05-03T03:37:49.911Z,1009.34
2016-05-03T03:38:49.523Z,1009.34
2016-05-03T03:39:49.510Z,1009.32
2016-05-03T03:40:49.481Z,1009.34
2016-05-03T03:41:49.469Z,1009.32
2016-05-03T03:42:49.440Z,1009.35
2016-05-03T03:43:49.412Z,1009.34
2016-05-03T03:44:49.399Z,1009.41
2016-05-03T03:45:49.369Z,1009.38
2016-05-03T03:46:49.357Z,1009.36
2016-05-03T03:47:49.328Z,1009.33
2016-05-03T03:48:49.300Z,1009.32
2016-05-03T03:49:49.286Z,1009.35
2016-05-03T03:50:49.275Z,1009.35
2016-05-03T03:51:49.246Z,1009.32
2016-05-03T03:52:49.217Z,1009.35
2016-05-03T03:53:49.188Z,1009.33
2016-05-03T03:54:49.175Z,1009.29
2016-05-03T03:55:49.146Z,1009.29
2016-05-03T03:56:49.119Z,1009.31
2016-05-03T03:57:49.105Z,1009.28
2016-05-03T03:58:49.076Z,1009.29
2016-05-03T03:59:49.063Z,1009.31
2016-05-03T04:00:49.035Z,1009.29
2016-05-03T04:01:49.023Z,1009.32
2016-05-03T04:02:48.994Z,1009.3
2016-05-03T04:03:48.965Z,1009.28
2016-05-03T04:04:48.952Z,1009.35
2016-05-03T04:05:48.924Z,1009.3
2016-05-03T04:06:48.912Z,1009.38
2016-05-03T04:07:48.882Z,1009.35
2016-05-03T04:08:48.853Z,1009.33
2016-05-03T04:09:48.840Z,1009.34
2016-05-03T04:10:48.812Z,1009.33
2016-05-03T04:11:48.784Z,1009.38
2016-05-03T04:12:48.771Z,1009.41
2016-05-03T04:13:48.743Z,1009.39
2016-05-03T04:14:48.728Z,1009.38
2016-05-03T04:15:48.700Z,1009.4
2016-05-03T04:16:48.672Z,1009.41
2016-05-03T04:17:48.659Z,1009.38
2016-05-03T04:18:48.631Z,1009.39
2016-05-03T04:19:48.617Z,1009.43
2016-05-03T04:20:48.589Z,1009.44
2016-05-03T04:21:48.565Z,1009.47
2016-05-03T04:22:48.598Z,1009.47
2016-05-03T04:23:48.617Z,1009.52
2016-05-03T04:24:48.650Z,1009.48
2016-05-03T04:25:48.669Z,1009.5
2016-05-03T04:26:48.683Z,1009.53
2016-05-03T04:27:48.687Z,1009.53
2016-05-03T04:28:48.674Z,1009.56
2016-05-03T04:29:48.663Z,1009.57
2016-05-03T04:30:48.666Z,1009.71
2016-05-03T04:31:48.653Z,1009.85
2016-05-03T04:32:48.630Z,1009.99
2016-05-03T04:33:48.624Z,1010.07
2016-05-03T04:34:48.602Z,1010.07
2016-05-03T04:35:48.595Z,1010
2016-05-03T04:36:48.571Z,1010.07
2016-05-03T04:37:48.546Z,1010.07
2016-05-03T04:38:48.535Z,1010.05
2016-05-03T04:39:48.523Z,1010.04
2016-05-03T04:40:48.483Z,1010.14
2016-05-03T04:41:48.472Z,1010.18
2016-05-03T04:42:48.444Z,1010.18
2016-05-03T04:43:48.416Z,1010.16
2016-05-03T04:44:48.404Z,1010.14
2016-05-03T04:45:48.377Z,1010.12
2016-05-03T04:46:48.364Z,1010.12
2016-05-03T04:47:48.336Z,1010.13
2016-05-03T04:48:48.307Z,1010.13
2016-05-03T04:49:48.279Z,1010.18
2016-05-03T04:50:48.267Z,1010.14
2016-05-03T04:51:48.238Z,1010.18
2016-05-03T04:52:48.210Z,1010.16
2016-05-03T04:53:48.196Z,1010.15
2016-05-03T04:54:48.168Z,1010.16
2016-05-03T04:55:48.140Z,1010.16
2016-05-03T04:56:48.127Z,1010.18
2016-05-03T04:57:48.114Z,1010.23
2016-05-03T04:58:48.070Z,1010.19
2016-05-03T04:59:48.042Z,1010.22
2016-05-03T05:00:48.028Z,1010.29
2016-05-03T05:01:48.000Z,1010.24
2016-05-03T05:02:47.971Z,1010.29
2016-05-03T05:03:47.959Z,1010.31
2016-05-03T05:04:47.930Z,1010.34
2016-05-03T05:05:47.901Z,1010.42
2016-05-03T05:06:47.888Z,1010.4
2016-05-03T05:07:48.156Z,1010.4
2016-05-03T05:08:47.831Z,1010.43
2016-05-03T05:09:47.819Z,1010.47
2016-05-03T05:10:47.789Z,1010.45
2016-05-03T05:11:47.761Z,1010.43
2016-05-03T05:12:47.733Z,1010.46
2016-05-03T05:13:47.704Z,1010.51
2016-05-03T05:14:47.691Z,1010.49
2016-05-03T05:15:47.678Z,1010.49
2016-05-03T05:16:47.633Z,1010.57
2016-05-03T05:17:47.621Z,1010.55
2016-05-03T05:18:47.593Z,1010.57
2016-05-03T05:19:47.563Z,1010.56
2016-05-03T05:20:47.535Z,1010.63
2016-05-03T05:21:47.522Z,1010.64
2016-05-03T05:22:47.494Z,1010.7
2016-05-03T05:23:47.465Z,1010.71
2016-05-03T05:24:47.452Z,1010.73
2016-05-03T05:25:47.424Z,1010.71
2016-05-03T05:26:47.395Z,1010.69
2016-05-03T05:27:47.382Z,1010.76
2016-05-03T05:28:47.353Z,1010.8
2016-05-03T05:29:47.325Z,1010.79
2016-05-03T05:30:47.312Z,1010.77
2016-05-03T05:31:47.284Z,1010.8
2016-05-03T05:32:47.255Z,1010.84
2016-05-03T05:33:47.226Z,1010.86
2016-05-03T05:34:47.198Z,1010.83
2016-05-03T05:35:47.184Z,1010.87
2016-05-03T05:36:47.156Z,1010.89
2016-05-03T05:37:47.128Z,1010.83
2016-05-03T05:38:47.099Z,1010.86
2016-05-03T05:39:47.087Z,1010.84
2016-05-03T05:40:47.058Z,1010.89
2016-05-03T05:41:47.029Z,1010.92
2016-05-03T05:42:47.000Z,1010.93
2016-05-03T05:43:46.988Z,1010.94
2016-05-03T05:44:46.958Z,1010.96
2016-05-03T05:45:46.930Z,1010.93
2016-05-03T05:46:46.902Z,1011
2016-05-03T05:47:46.889Z,1010.98
2016-05-03T05:48:46.860Z,1011
2016-05-03T05:49:46.832Z,1011.02
2016-05-03T05:50:46.804Z,1011.03
2016-05-03T05:51:46.791Z,1011.04
2016-05-03T05:52:46.762Z,1011.06
2016-05-03T05:53:46.733Z,1011.11
2016-05-03T05:54:46.721Z,1011.16
2016-05-03T05:55:46.692Z,1011.14
2016-05-03T05:56:46.663Z,1011.18
2016-05-03T05:57:46.635Z,1011.17
2016-05-03T05:58:46.606Z,1011.16
2016-05-03T05:59:46.593Z,1011.18
2016-05-03T06:00:46.565Z,1011.2
2016-05-03T06:01:46.536Z,1011.2
2016-05-03T06:02:46.507Z,1011.24
2016-05-03T06:03:46.494Z,1011.23
2016-05-03T06:04:46.467Z,1011.25
2016-05-03T06:05:46.438Z,1011.3
2016-05-03T06:06:46.425Z,1011.31
2016-05-03T06:07:46.395Z,1011.28
2016-05-03T06:08:46.367Z,1011.3
2016-05-03T06:09:46.339Z,1011.32
2016-05-03T06:10:46.342Z,1011.42
2016-05-03T06:11:46.298Z,1011.39
2016-05-03T06:12:46.269Z,1011.4
2016-05-03T06:13:46.255Z,1011.42
2016-05-03T06:14:46.228Z,1011.43
2016-05-03T06:15:46.199Z,1011.45
2016-05-03T06:16:46.170Z,1011.44
2016-05-03T06:17:46.158Z,1011.42
2016-05-03T06:18:46.130Z,1011.47
2016-05-03T06:19:46.100Z,1011.48
2016-05-03T06:20:46.072Z,1011.5
2016-05-03T06:21:46.058Z,1011.49
2016-05-03T06:22:46.030Z,1011.58
2016-05-03T06:23:46.002Z,1011.58
2016-05-03T06:24:45.989Z,1011.58
2016-05-03T06:25:45.960Z,1011.6
2016-05-03T06:26:45.931Z,1011.61
2016-05-03T06:27:45.904Z,1011.64
2016-05-03T06:28:45.890Z,1011.68
2016-05-03T06:29:45.862Z,1011.67
2016-05-03T06:30:45.833Z,1011.73
2016-05-03T06:31:45.804Z,1011.75
2016-05-03T06:32:45.792Z,1011.75
2016-05-03T06:33:45.763Z,1011.74
2016-05-03T06:34:45.734Z,1011.78
2016-05-03T06:35:45.721Z,1011.78
2016-05-03T06:36:45.693Z,1011.8
2016-05-03T06:37:45.665Z,1011.84
2016-05-03T06:38:45.650Z,1011.83
2016-05-03T06:39:45.623Z,1011.82
2016-05-03T06:40:45.594Z,1011.79
2016-05-03T06:41:45.581Z,1011.83
2016-05-03T06:42:45.553Z,1011.84
2016-05-03T06:43:45.540Z,1011.91
2016-05-03T06:44:45.511Z,1011.96
2016-05-03T06:45:45.482Z,1011.93
2016-05-03T06:46:45.454Z,1011.94
2016-05-03T06:47:45.441Z,1011.94
2016-05-03T06:48:45.428Z,1011.94
2016-05-03T06:49:45.400Z,1011.91
2016-05-03T06:50:45.371Z,1011.94
2016-05-03T06:51:45.358Z,1011.96
2016-05-03T06:52:45.346Z,1012.06
2016-05-03T06:53:45.301Z,1012.1
2016-05-03T06:54:45.288Z,1012.07
2016-05-03T06:55:45.259Z,1012.08
2016-05-03T06:56:45.232Z,1011.99
2016-05-03T06:57:45.218Z,1012
2016-05-03T06:58:45.190Z,1012
2016-05-03T06:59:45.193Z,1012.11
2016-05-03T07:00:45.148Z,1012.16
2016-05-03T07:01:45.135Z,1012.18
2016-05-03T07:02:45.107Z,1012.17
2016-05-03T07:03:45.078Z,1012.12
2016-05-03T07:04:45.065Z,1012.16
2016-05-03T07:05:45.037Z,1012.16
2016-05-03T07:06:45.024Z,1012.24
2016-05-03T07:07:45.011Z,1012.26
2016-05-03T07:08:44.982Z,1012.33
2016-05-03T07:09:44.953Z,1012.27
2016-05-03T07:10:44.925Z,1012.25
2016-05-03T07:11:44.912Z,1012.25
2016-05-03T07:12:44.884Z,1012.31
2016-05-03T07:13:44.871Z,1012.38
2016-05-03T07:14:44.858Z,1012.36
2016-05-03T07:15:44.829Z,1012.5
2016-05-03T07:16:44.816Z,1012.52
2016-05-03T07:17:44.788Z,1012.55
2016-05-03T07:18:44.759Z,1012.5
2016-05-03T07:19:44.746Z,1012.59
2016-05-03T07:20:44.717Z,1012.48
2016-05-03T07:21:44.705Z,1012.52
2016-05-03T07:22:44.677Z,1012.54
2016-05-03T07:23:44.647Z,1012.6
2016-05-03T07:24:44.635Z,1012.61
2016-05-03T07:25:44.606Z,1012.66
2016-05-03T07:26:44.593Z,1012.69
2016-05-03T07:27:44.565Z,1012.66
2016-05-03T07:28:44.535Z,1012.74
2016-05-03T07:29:44.524Z,1012.64
2016-05-03T07:30:44.510Z,1012.68
2016-05-03T07:31:44.482Z,1012.7
2016-05-03T07:32:44.454Z,1012.63
2016-05-03T07:33:44.440Z,1012.66
2016-05-03T07:34:44.412Z,1012.67
2016-05-03T07:35:44.398Z,1012.64
2016-05-03T07:36:44.370Z,1012.66
2016-05-03T07:37:44.357Z,1012.68
2016-05-03T07:38:44.328Z,1012.68
2016-05-03T07:39:44.301Z,1012.73
2016-05-03T07:40:44.287Z,1012.74
2016-05-03T07:41:44.259Z,1012.77
2016-05-03T07:42:44.231Z,1012.79
2016-05-03T07:43:44.217Z,1012.83
2016-05-03T07:44:44.189Z,1012.79
2016-05-03T07:45:44.175Z,1012.81
2016-05-03T07:46:44.147Z,1012.86
2016-05-03T07:47:44.134Z,1012.88
2016-05-03T07:48:44.106Z,1012.99
2016-05-03T07:49:44.092Z,1013.05
2016-05-03T07:50:44.064Z,1013.09
2016-05-03T07:51:44.051Z,1013.03
2016-05-03T07:52:44.022Z,1012.99
2016-05-03T07:53:44.010Z,1013.04
2016-05-03T07:54:43.981Z,1013.03
2016-05-03T07:55:43.969Z,1013.17
2016-05-03T07:56:43.955Z,1013.17
2016-05-03T07:57:43.926Z,1013.12
2016-05-03T07:58:43.913Z,1013.18
2016-05-03T07:59:43.901Z,1013.21
2016-05-03T08:00:43.888Z,1013.23
2016-05-03T08:01:43.860Z,1013.13
2016-05-03T08:02:43.847Z,1013.16
2016-05-03T08:03:43.833Z,1013.09
2016-05-03T08:04:43.836Z,1013.14
2016-05-03T08:05:43.808Z,1013.15
2016-05-03T08:06:43.795Z,1013.18
2016-05-03T08:07:43.782Z,1013.18
2016-05-03T08:08:43.754Z,1013.16
2016-05-03T08:09:43.740Z,1013.18
2016-05-03T08:10:43.726Z,1013.2
2016-05-03T08:11:43.715Z,1013.18
2016-05-03T08:12:43.701Z,1013.14
2016-05-03T08:13:43.688Z,1013.21
2016-05-03T08:14:43.660Z,1013.25
2016-05-03T08:15:43.647Z,1013.23
2016-05-03T08:16:43.618Z,1013.25
2016-05-03T08:17:43.606Z,1013.18
2016-05-03T08:18:43.592Z,1013.27
2016-05-03T08:19:43.580Z,1013.2
2016-05-03T08:20:43.550Z,1013.24
2016-05-03T08:21:43.538Z,1013.28
2016-05-03T08:22:43.525Z,1013.32
2016-05-03T08:23:43.512Z,1013.3
2016-05-03T08:24:43.483Z,1013.29
2016-05-03T08:25:43.471Z,1013.39
2016-05-03T08:26:43.474Z,1013.4
2016-05-03T08:27:43.444Z,1013.35
2016-05-03T08:28:43.432Z,1013.33
2016-05-03T08:29:43.403Z,1013.31
2016-05-03T08:30:43.391Z,1013.32
2016-05-03T08:31:43.377Z,1013.43
2016-05-03T08:32:43.365Z,1013.4
2016-05-03T08:33:43.351Z,1013.42
2016-05-03T08:34:43.338Z,1013.38
2016-05-03T08:35:43.326Z,1013.39
2016-05-03T08:36:43.296Z,1013.34
2016-05-03T08:37:43.284Z,1013.35
2016-05-03T08:38:43.271Z,1013.36
2016-05-03T08:39:43.258Z,1013.32
2016-05-03T08:40:43.245Z,1013.4
2016-05-03T08:41:43.232Z,1013.28
2016-05-03T08:42:43.219Z,1013.27
2016-05-03T08:43:43.206Z,1013.3
2016-05-03T08:44:43.194Z,1013.39
2016-05-03T08:45:43.181Z,1013.37
2016-05-03T08:46:43.167Z,1013.34
2016-05-03T08:47:43.156Z,1013.38
2016-05-03T08:48:43.142Z,1013.35
2016-05-03T08:49:43.128Z,1013.36
2016-05-03T08:50:43.116Z,1013.39
2016-05-03T08:51:43.103Z,1013.36
2016-05-03T08:52:43.089Z,1013.35
2016-05-03T08:53:43.077Z,1013.39
2016-05-03T08:54:43.049Z,1013.38
2016-05-03T08:55:43.036Z,1013.41
2016-05-03T08:56:43.023Z,1013.42
2016-05-03T08:57:43.010Z,1013.45
2016-05-03T08:58:42.981Z,1013.45
2016-05-03T08:59:42.969Z,1013.51
2016-05-03T09:00:42.971Z,1013.45
2016-05-03T09:01:42.943Z,1013.48
2016-05-03T09:02:42.929Z,1013.49
2016-05-03T09:03:42.901Z,1013.48
2016-05-03T09:04:42.888Z,1013.47
2016-05-03T09:05:42.860Z,1013.5
2016-05-03T09:06:42.846Z,1013.52
2016-05-03T09:07:43.052Z,1013.48
2016-05-03T09:08:42.821Z,1013.48
2016-05-03T09:09:42.792Z,1013.47
2016-05-03T09:10:42.779Z,1013.56
2016-05-03T09:11:42.766Z,1013.48
2016-05-03T09:12:42.738Z,1013.46
2016-05-03T09:13:42.725Z,1013.49
2016-05-03T09:14:42.696Z,1013.41
2016-05-03T09:15:42.683Z,1013.46
2016-05-03T09:16:42.670Z,1013.51
2016-05-03T09:17:42.642Z,1013.5
2016-05-03T09:18:42.628Z,1013.49
2016-05-03T09:19:42.600Z,1013.56
2016-05-03T09:20:42.587Z,1013.45
2016-05-03T09:21:42.558Z,1013.41
2016-05-03T09:22:42.550Z,1013.48
2016-05-03T09:23:42.533Z,1013.47
2016-05-03T09:24:42.505Z,1013.49
2016-05-03T09:25:42.491Z,1013.47
2016-05-03T09:26:42.463Z,1013.48
2016-05-03T09:27:42.450Z,1013.5
2016-05-03T09:28:42.437Z,1013.51
2016-05-03T09:29:42.408Z,1013.5
2016-05-03T09:30:42.396Z,1013.53
2016-05-03T09:31:42.366Z,1013.53
2016-05-03T09:32:42.354Z,1013.49
2016-05-03T09:33:42.324Z,1013.51
2016-05-03T09:34:42.313Z,1013.53
2016-05-03T09:35:42.299Z,1013.7
2016-05-03T09:36:42.271Z,1013.61
2016-05-03T09:37:42.258Z,1013.65
2016-05-03T09:38:42.229Z,1013.67
2016-05-03T09:39:42.216Z,1013.6
2016-05-03T09:40:42.204Z,1013.6
2016-05-03T09:41:42.175Z,1013.7
2016-05-03T09:42:42.146Z,1013.72
2016-05-03T09:43:42.134Z,1013.76
2016-05-03T09:44:42.121Z,1013.76
2016-05-03T09:45:42.092Z,1013.82
2016-05-03T09:46:42.079Z,1013.9
2016-05-03T09:47:42.051Z,1013.82
2016-05-03T09:48:42.037Z,1013.79
2016-05-03T09:49:42.025Z,1013.87
2016-05-03T09:50:41.995Z,1013.85
2016-05-03T09:51:41.984Z,1013.92
2016-05-03T09:52:41.970Z,1013.9
2016-05-03T09:53:41.941Z,1013.88
2016-05-03T09:54:41.929Z,1013.91
2016-05-03T09:55:41.900Z,1013.92
2016-05-03T09:56:41.887Z,1013.95
2016-05-03T09:57:41.859Z,1013.98
2016-05-03T09:58:41.846Z,1013.98
2016-05-03T09:59:41.833Z,1013.93
2016-05-03T10:00:41.804Z,1014.01
2016-05-03T10:01:41.776Z,1014.03
2016-05-03T10:02:41.763Z,1013.93
2016-05-03T10:03:41.749Z,1013.96
2016-05-03T10:04:41.721Z,1013.94
2016-05-03T10:05:41.708Z,1013.94
2016-05-03T10:06:41.679Z,1013.93
2016-05-03T10:07:41.666Z,1013.95
2016-05-03T10:08:41.638Z,1013.96
2016-05-03T10:09:41.625Z,1013.94
2016-05-03T10:10:41.612Z,1014.01
2016-05-03T10:11:41.584Z,1014
2016-05-03T10:12:41.571Z,1013.95
2016-05-03T10:13:41.542Z,1014.01
2016-05-03T10:14:41.529Z,1013.93
2016-05-03T10:15:41.517Z,1013.93
2016-05-03T10:16:41.488Z,1013.97
2016-05-03T10:17:41.459Z,1014.02
2016-05-03T10:18:41.446Z,1013.99
2016-05-03T10:19:41.433Z,1013.96
2016-05-03T10:20:41.406Z,1013.98
2016-05-03T10:21:41.392Z,1013.97
2016-05-03T10:22:41.863Z,1014.01
2016-05-03T10:23:41.350Z,1013.97
2016-05-03T10:24:41.322Z,1013.99
2016-05-03T10:25:41.309Z,1014
2016-05-03T10:26:41.281Z,1013.95
2016-05-03T10:27:41.267Z,1013.96
2016-05-03T10:28:41.239Z,1013.96
2016-05-03T10:29:41.226Z,1013.98
2016-05-03T10:30:41.197Z,1013.97
2016-05-03T10:31:41.185Z,1013.99
2016-05-03T10:32:41.156Z,1013.95
2016-05-03T10:33:41.143Z,1013.92
2016-05-03T10:34:41.130Z,1013.92
2016-05-03T10:35:41.102Z,1014.01
2016-05-03T10:36:41.089Z,1013.95
2016-05-03T10:37:41.060Z,1014.03
2016-05-03T10:38:41.032Z,1014.02
2016-05-03T10:39:41.019Z,1014.03
2016-05-03T10:40:40.990Z,1014.01
2016-05-03T10:41:40.977Z,1014.03
2016-05-03T10:42:40.949Z,1014.02
2016-05-03T10:43:40.935Z,1014.01
2016-05-03T10:44:40.907Z,1014.05
2016-05-03T10:45:40.894Z,1014.01
2016-05-03T10:46:40.865Z,1014.01
2016-05-03T10:47:40.853Z,1014.03
2016-05-03T10:48:40.839Z,1014.11
2016-05-03T10:49:40.811Z,1014.01
2016-05-03T10:50:40.814Z,1014.09
2016-05-03T10:51:40.770Z,1014.11
2016-05-03T10:52:40.742Z,1014.07
2016-05-03T10:53:40.728Z,1014.07
2016-05-03T10:54:40.714Z,1014.2
2016-05-03T10:55:40.687Z,1014.16
2016-05-03T10:56:40.673Z,1014.18
2016-05-03T10:57:40.661Z,1014.16
2016-05-03T10:58:40.633Z,1014.22
2016-05-03T10:59:40.619Z,1014.33
2016-05-03T11:00:40.591Z,1014.25
2016-05-03T11:01:40.578Z,1014.29
2016-05-03T11:02:40.549Z,1014.22
2016-05-03T11:03:40.536Z,1014.3
2016-05-03T11:04:40.508Z,1014.23
2016-05-03T11:05:40.494Z,1014.24
2016-05-03T11:06:40.466Z,1014.25
2016-05-03T11:07:40.828Z,1014.27
2016-05-03T11:08:40.440Z,1014.25
2016-05-03T11:09:40.413Z,1014.27
2016-05-03T11:10:40.399Z,1014.29
2016-05-03T11:11:40.370Z,1014.3
2016-05-03T11:12:40.358Z,1014.38
2016-05-03T11:13:40.328Z,1014.37
2016-05-03T11:14:40.315Z,1014.57
2016-05-03T11:15:40.303Z,1014.46
2016-05-03T11:16:40.274Z,1014.41
2016-05-03T11:17:40.262Z,1014.36
2016-05-03T11:18:40.232Z,1014.36
2016-05-03T11:19:40.220Z,1014.31
2016-05-03T11:20:40.191Z,1014.32
2016-05-03T11:21:40.179Z,1014.36
2016-05-03T11:22:40.337Z,1014.4
2016-05-03T11:23:40.137Z,1014.38
2016-05-03T11:24:40.109Z,1014.39
2016-05-03T11:25:40.095Z,1014.43
2016-05-03T11:26:40.083Z,1014.39
2016-05-03T11:27:40.054Z,1014.42
2016-05-03T11:28:40.041Z,1014.42
2016-05-03T11:29:40.012Z,1014.35
2016-05-03T11:30:40.000Z,1014.37
2016-05-03T11:31:39.971Z,1014.38
2016-05-03T11:32:39.958Z,1014.42
2016-05-03T11:33:39.930Z,1014.45
2016-05-03T11:34:39.916Z,1014.42
2016-05-03T11:35:39.888Z,1014.41
2016-05-03T11:36:39.875Z,1014.43
2016-05-03T11:37:40.549Z,1014.38
2016-05-03T11:38:39.833Z,1014.41
2016-05-03T11:39:39.821Z,1014.44
2016-05-03T11:40:39.791Z,1014.43
2016-05-03T11:41:39.780Z,1014.42
2016-05-03T11:42:39.766Z,1014.5
2016-05-03T11:43:39.738Z,1014.48
2016-05-03T11:44:39.725Z,1014.49
2016-05-03T11:45:39.712Z,1014.49
2016-05-03T11:46:39.682Z,1014.56
2016-05-03T11:47:39.670Z,1014.45
2016-05-03T11:48:39.642Z,1014.44
2016-05-03T11:49:39.629Z,1014.49
2016-05-03T11:50:39.616Z,1014.5
2016-05-03T11:51:39.587Z,1014.49
2016-05-03T11:52:39.574Z,1014.42
2016-05-03T11:53:39.561Z,1014.42
2016-05-03T11:54:39.534Z,1014.46
2016-05-03T11:55:39.520Z,1014.38
2016-05-03T11:56:39.492Z,1014.44
2016-05-03T11:57:39.462Z,1014.46
2016-05-03T11:58:39.450Z,1014.47
2016-05-03T11:59:39.437Z,1014.39
2016-05-03T12:00:39.408Z,1014.47
2016-05-03T12:01:39.396Z,1014.46
2016-05-03T12:02:39.367Z,1014.45
2016-05-03T12:03:39.353Z,1014.49
2016-05-03T12:04:39.341Z,1014.49
2016-05-03T12:05:39.313Z,1014.47
2016-05-03T12:06:39.300Z,1014.5
2016-05-03T12:07:39.272Z,1014.5
2016-05-03T12:08:39.258Z,1014.54
2016-05-03T12:09:39.230Z,1014.53